Time;durP1;ratioP1;P1;durP2;ratioP2;P2;SDS_P1;SDS_P2;PMS_P1;PMS_P2;Temp;Humidity;BMP_temperature;BMP_pressure;BME280_temperature;BME280_humidity;BME280_pressure;Samples;Min_cycle;Max_cycle;Signal;HPM_P1;HPM_P2
2023/03/17 00:00:28;;;;;;;5.45;4.40;;;;;;;0.79;100.00;62077.47;5042864;28;20252;-78
2023/03/17 00:02:58;;;;;;;4.47;4.13;;;;;;;0.86;100.00;62086.63;5046574;28;20272;-78
2023/03/17 00:05:29;;;;;;;5.03;4.68;;;;;;;0.88;100.00;62089.19;5046318;28;20248;-77
2023/03/17 00:08:04;;;;;;;5.13;4.53;;;;;;;0.88;100.00;62091.19;5044880;28;20284;-79
2023/03/17 00:10:31;;;;;;;5.57;4.35;;;;;;;0.94;100.00;62094.81;5046552;28;20197;-78
2023/03/17 00:12:59;;;;;;;4.88;4.47;;;;;;;0.97;100.00;62100.41;5046812;28;20586;-78
2023/03/17 00:15:28;;;;;;;4.82;4.38;;;;;;;0.99;100.00;62104.97;5047464;28;20206;-77
2023/03/17 00:17:56;;;;;;;4.30;3.90;;;;;;;0.90;100.00;62098.75;5045666;28;20267;-78
2023/03/17 00:20:26;;;;;;;5.53;4.70;;;;;;;0.84;100.00;62082.06;5046354;28;20213;-79
2023/03/17 00:22:54;;;;;;;4.65;4.25;;;;;;;0.60;100.00;62057.47;5046562;28;20220;-77
2023/03/17 00:25:24;;;;;;;5.70;4.75;;;;;;;0.55;100.00;62057.84;5046351;28;20225;-77
2023/03/17 00:27:52;;;;;;;6.07;5.13;;;;;;;0.66;100.00;62066.63;5047167;28;20236;-81
2023/03/17 00:30:21;;;;;;;6.85;4.60;;;;;;;0.80;100.00;62080.97;5048935;28;20198;-79
2023/03/17 00:32:50;;;;;;;4.43;4.03;;;;;;;0.83;100.00;62086.03;5048415;28;20222;-78
2023/03/17 00:35:20;;;;;;;7.07;4.15;;;;;;;0.80;100.00;62086.00;5047182;28;20621;-79
2023/03/17 00:37:48;;;;;;;4.65;4.25;;;;;;;0.59;100.00;62058.94;5046870;28;20293;-78
2023/03/17 00:40:17;;;;;;;5.53;5.05;;;;;;;0.65;100.00;62065.09;5050664;28;20198;-79
2023/03/17 00:42:44;;;;;;;5.55;5.05;;;;;;;0.68;100.00;62066.19;5047408;28;20229;-79
2023/03/17 00:45:12;;;;;;;4.63;4.25;;;;;;;0.74;100.00;62077.31;5046936;28;20205;-79
2023/03/17 00:47:40;;;;;;;5.43;4.93;;;;;;;0.82;100.00;62085.53;5045355;28;20256;-79
2023/03/17 00:50:11;;;;;;;5.50;5.00;;;;;;;0.93;100.00;62096.81;5046783;28;20483;-78
2023/03/17 00:52:39;;;;;;;5.80;5.30;;;;;;;0.80;100.00;62078.47;5039985;28;20288;-79
2023/03/17 00:55:08;;;;;;;6.20;5.60;;;;;;;0.94;100.00;62092.31;5046609;28;20289;-79
2023/03/17 00:57:36;;;;;;;6.07;5.47;;;;;;;0.96;100.00;62104.91;5049118;28;20569;-79
2023/03/17 01:00:05;;;;;;;5.75;5.25;;;;;;;0.76;100.00;62076.88;5047768;28;20202;-78
2023/03/17 01:02:32;;;;;;;5.82;5.32;;;;;;;0.77;100.00;62077.91;5030707;28;20222;-79
2023/03/17 01:05:00;;;;;;;6.05;5.40;;;;;;;0.87;100.00;62087.66;5047102;28;20248;-79
2023/03/17 01:07:29;;;;;;;6.47;5.22;;;;;;;0.86;100.00;62084.13;5046143;28;20214;-78
2023/03/17 01:09:56;;;;;;;7.38;5.95;;;;;;;0.97;100.00;62108.44;5041626;28;20318;-79
2023/03/17 01:12:23;;;;;;;7.10;5.85;;;;;;;0.99;100.00;62100.47;5047531;28;20222;-78
2023/03/17 01:14:49;;;;;;;6.95;6.03;;;;;;;0.99;100.00;62100.47;5046125;28;20220;-77
2023/03/17 01:17:18;;;;;;;7.63;5.80;;;;;;;0.85;100.00;62088.63;5043463;28;20551;-78
2023/03/17 01:19:46;;;;;;;6.20;5.60;;;;;;;0.94;100.00;62095.34;5044482;28;20467;-78
2023/03/17 01:22:14;;;;;;;6.30;4.97;;;;;;;0.85;100.00;62088.09;5048191;28;20229;-76
2023/03/17 01:24:42;;;;;;;6.20;5.60;;;;;;;0.79;100.00;62087.47;5045025;28;20276;-79
2023/03/17 01:27:09;;;;;;;9.13;6.72;;;;;;;0.95;100.00;62095.84;5045043;28;20214;-79
2023/03/17 01:29:36;;;;;;;6.45;4.78;;;;;;;0.93;100.00;62093.81;5050079;28;20297;-80
2023/03/17 01:32:03;;;;;;;5.95;5.22;;;;;;;1.01;100.00;62107.53;5046192;28;20290;-79
2023/03/17 01:34:31;;;;;;;5.57;4.70;;;;;;;1.12;100.00;62118.31;5045662;28;20225;-80
2023/03/17 01:36:58;;;;;;;8.25;4.40;;;;;;;1.22;100.00;62123.03;5042055;28;20559;-80
2023/03/17 01:39:27;;;;;;;6.10;4.93;;;;;;;1.27;100.00;62135.69;5048225;28;20190;-79
2023/03/17 01:41:56;;;;;;;5.32;4.55;;;;;;;1.21;100.00;62125.03;5050511;28;20241;-79
2023/03/17 01:44:24;;;;;;;5.28;3.97;;;;;;;1.29;100.00;62128.22;5043783;28;20265;-80
2023/03/17 01:46:52;;;;;;;4.85;4.13;;;;;;;1.36;100.00;62142.41;5049755;28;20522;-79
2023/03/17 01:49:25;;;;;;;3.50;3.20;;;;;;;1.37;100.00;62143.44;5045690;28;20572;-79
2023/03/17 01:52:01;;;;;;;4.90;3.47;;;;;;;1.44;100.00;62148.13;5047297;28;20241;-79
2023/03/17 01:54:35;;;;;;;4.30;3.85;;;;;;;1.47;100.00;62148.69;5034194;28;20228;-79
2023/03/17 01:57:09;;;;;;;3.63;3.33;;;;;;;1.54;100.00;62155.88;5025857;28;20222;-79
2023/03/17 01:59:42;;;;;;;3.10;2.80;;;;;;;1.50;100.00;62154.28;5029456;28;20245;-78
2023/03/17 02:02:13;;;;;;;2.10;1.90;;;;;;;1.53;100.00;62155.38;5028787;28;20237;-78
2023/03/17 02:04:40;;;;;;;1.90;1.80;;;;;;;1.55;100.00;62159.41;5033113;28;20266;-78
2023/03/17 02:07:07;;;;;;;1.80;1.70;;;;;;;1.59;100.00;62166.53;5045048;28;20224;-78
2023/03/17 02:09:37;;;;;;;1.70;1.63;;;;;;;1.54;100.00;62155.88;5045096;28;20362;-79
2023/03/17 02:12:06;;;;;;;2.10;2.00;;;;;;;1.65;100.00;62170.19;5046038;28;20213;-79
2023/03/17 02:14:33;;;;;;;1.75;1.67;;;;;;;1.65;100.00;62167.16;5047414;28;20194;-78
2023/03/17 02:17:00;;;;;;;1.95;1.55;;;;;;;1.64;100.00;62174.16;5050438;28;20282;-78
2023/03/17 02:19:27;;;;;;;2.03;1.90;;;;;;;1.67;100.00;62169.72;5048633;28;20198;-79
2023/03/17 02:21:57;;;;;;;1.33;1.33;;;;;;;1.70;100.00;62174.81;5038684;28;20225;-79
2023/03/17 02:24:33;;;;;;;1.08;1.08;;;;;;;1.64;100.00;62166.63;5047090;28;20240;-79
2023/03/17 02:27:05;;;;;;;1.70;1.60;;;;;;;1.63;100.00;62165.09;5028793;28;20234;-79
2023/03/17 02:29:36;;;;;;;1.80;1.70;;;;;;;1.44;100.00;62148.63;5029816;28;20245;-79
2023/03/17 02:32:04;;;;;;;3.17;2.97;;;;;;;1.51;100.00;62152.78;5045405;28;20487;-80
2023/03/17 02:34:36;;;;;;;1.65;1.55;;;;;;;1.57;100.00;62161.47;5049111;28;20220;-79
2023/03/17 02:37:05;;;;;;;1.27;1.23;;;;;;;1.62;100.00;62161.56;5057869;28;20214;-78
2023/03/17 02:39:32;;;;;;;5.72;1.73;;;;;;;1.51;100.00;62155.28;5042744;28;20199;-80
2023/03/17 02:42:00;;;;;;;1.40;1.40;;;;;;;1.52;100.00;62151.81;5040324;28;20289;-80
2023/03/17 02:44:27;;;;;;;1.95;1.85;;;;;;;1.41;100.00;62140.03;5042492;28;20297;-80
2023/03/17 02:46:54;;;;;;;1.80;1.70;;;;;;;1.43;100.00;62145.09;5052788;28;20229;-79
2023/03/17 02:49:21;;;;;;;1.83;1.73;;;;;;;1.48;100.00;62154.72;5045286;28;20229;-81
2023/03/17 02:51:48;;;;;;;1.70;1.60;;;;;;;1.44;100.00;62148.63;5051037;28;20220;-79
2023/03/17 02:54:17;;;;;;;1.70;1.60;;;;;;;1.58;100.00;62165.00;5051914;28;20190;-79
2023/03/17 02:56:44;;;;;;;1.75;1.65;;;;;;;1.56;100.00;62157.91;5043721;28;20405;-79
2023/03/17 02:59:11;;;;;;;1.73;1.63;;;;;;;1.65;100.00;62170.19;5031731;28;20237;-80
2023/03/17 03:01:38;;;;;;;3.03;1.40;;;;;;;1.74;100.00;62176.41;5052332;28;20233;-79
2023/03/17 03:04:06;;;;;;;2.25;1.90;;;;;;;1.65;100.00;62167.16;5047818;28;20205;-79
2023/03/17 03:06:33;;;;;;;1.33;1.27;;;;;;;1.58;100.00;62157.47;5047223;28;20229;-78
2023/03/17 03:09:00;;;;;;;1.23;1.23;;;;;;;1.53;100.00;62155.38;5046525;28;20233;-79
2023/03/17 03:11:29;;;;;;;1.33;1.33;;;;;;;1.48;100.00;62147.72;5048769;28;20226;-79
2023/03/17 03:13:56;;;;;;;1.80;1.70;;;;;;;1.56;100.00;62160.94;5047020;28;20248;-79
2023/03/17 03:16:24;;;;;;;1.60;1.60;;;;;;;1.38;100.00;62142.47;5048609;28;20538;-79
2023/03/17 03:18:51;;;;;;;2.40;2.30;;;;;;;1.39;100.00;62135.47;5036720;28;20205;-79
2023/03/17 03:21:18;;;;;;;2.15;1.98;;;;;;;1.25;100.00;62129.13;5037107;28;20217;-79
2023/03/17 03:23:46;;;;;;;1.92;1.83;;;;;;;1.14;100.00;62118.34;5046786;28;20209;-78
2023/03/17 03:26:12;;;;;;;1.67;1.58;;;;;;;1.14;100.00;62115.34;5031581;28;20208;-79
2023/03/17 03:28:41;;;;;;;1.77;1.67;;;;;;;1.13;100.00;62119.34;5029225;28;20375;-78
2023/03/17 03:31:08;;;;;;;1.80;1.70;;;;;;;1.03;100.00;62101.56;5028510;28;20199;-78
2023/03/17 03:33:35;;;;;;;1.63;1.52;;;;;;;1.07;100.00;62108.66;5038083;28;20202;-80
2023/03/17 03:36:03;;;;;;;1.95;1.80;;;;;;;1.08;100.00;62106.69;5048310;28;20401;-80
2023/03/17 03:38:30;;;;;;;2.03;1.92;;;;;;;1.18;100.00;62119.97;5053425;28;20241;-79
2023/03/17 03:40:57;;;;;;;2.03;1.92;;;;;;;1.31;100.00;62134.78;5049226;28;20202;-80
2023/03/17 03:43:24;;;;;;;2.13;1.98;;;;;;;1.44;100.00;62148.13;5050074;28;20225;-81
2023/03/17 03:45:53;;;;;;;4.80;3.22;;;;;;;1.53;100.00;62160.38;5048921;28;20232;-79
2023/03/17 03:48:21;;;;;;;3.90;3.35;;;;;;;1.62;100.00;62161.56;5050424;28;20237;-80
2023/03/17 03:50:48;;;;;;;3.05;2.78;;;;;;;1.70;100.00;62172.28;5047188;28;20340;-81
2023/03/17 03:53:15;;;;;;;3.53;3.22;;;;;;;1.68;100.00;62168.25;5047711;28;20218;-80
2023/03/17 03:55:42;;;;;;;3.97;3.08;;;;;;;1.74;100.00;62176.41;5047752;28;20194;-81
2023/03/17 03:58:10;;;;;;;3.30;3.00;;;;;;;1.73;100.00;62178.41;5049898;28;20271;-80
2023/03/17 04:00:37;;;;;;;2.78;2.58;;;;;;;1.69;100.00;62173.78;5050442;28;20213;-79
2023/03/17 04:03:06;;;;;;;3.03;2.70;;;;;;;1.74;100.00;62178.91;5049259;28;20267;-80
2023/03/17 04:05:33;;;;;;;3.58;3.38;;;;;;;1.73;100.00;62177.88;5053583;28;20213;-78
2023/03/17 04:08:00;;;;;;;3.05;2.85;;;;;;;1.85;100.00;62187.69;5046393;28;20546;-80
2023/03/17 04:10:28;;;;;;;2.60;2.40;;;;;;;1.86;100.00;62189.25;5037459;28;20343;-79
2023/03/17 04:12:56;;;;;;;3.35;3.05;;;;;;;1.89;100.00;62192.31;5050083;28;20233;-79
2023/03/17 04:15:23;;;;;;;4.30;3.95;;;;;;;1.87;100.00;62190.25;5049825;28;21117;-78
2023/03/17 04:17:53;;;;;;;4.82;3.83;;;;;;;1.79;100.00;62182.06;5034535;28;20433;-80
2023/03/17 04:20:22;;;;;;;7.20;5.07;;;;;;;1.82;100.00;62185.13;5048253;28;20263;-79
2023/03/17 04:22:50;;;;;;;12.45;7.18;;;;;;;1.83;100.00;62191.16;5049130;28;20416;-80
2023/03/17 04:25:17;;;;;;;9.73;5.63;;;;;;;1.80;100.00;62187.56;5047243;28;20435;-79
2023/03/17 04:27:45;;;;;;;8.63;5.20;;;;;;;1.82;100.00;62187.63;5034054;28;20222;-79
2023/03/17 04:30:15;;;;;;;6.05;4.53;;;;;;;1.59;100.00;62161.50;5036976;28;20226;-80
2023/03/17 04:32:42;;;;;;;5.32;4.22;;;;;;;1.55;100.00;62157.41;5039755;28;20218;-80
2023/03/17 04:35:13;;;;;;;5.78;4.82;;;;;;;1.33;100.00;62134.81;5048731;28;20214;-79
2023/03/17 04:37:42;;;;;;;4.97;4.43;;;;;;;1.22;100.00;62123.03;5048538;28;20218;-79
2023/03/17 04:40:11;;;;;;;6.53;5.00;;;;;;;1.22;100.00;62123.56;5054982;28;20257;-80
2023/03/17 04:42:38;;;;;;;9.27;6.28;;;;;;;1.40;100.00;62141.50;5037485;28;20213;-80
2023/03/17 04:45:08;;;;;;;4.82;4.43;;;;;;;1.48;100.00;62145.22;5051117;28;20202;-81
2023/03/17 04:47:35;;;;;;;7.63;5.63;;;;;;;1.54;100.00;62156.38;5049797;28;20303;-80
2023/03/17 04:50:02;;;;;;;7.55;5.88;;;;;;;1.46;100.00;62148.19;5044143;28;20517;-79
2023/03/17 04:52:30;;;;;;;9.70;5.40;;;;;;;1.45;100.00;62149.66;5047676;28;20527;-79
2023/03/17 04:54:58;;;;;;;5.95;5.40;;;;;;;1.40;100.00;62144.03;5051713;28;20205;-78
2023/03/17 04:57:25;;;;;;;7.18;5.93;;;;;;;1.34;100.00;62140.38;5046880;28;20538;-80
2023/03/17 04:59:52;;;;;;;7.53;6.03;;;;;;;1.38;100.00;62137.44;5044678;28;20202;-79
2023/03/17 05:02:20;;;;;;;8.38;5.93;;;;;;;1.28;100.00;62129.19;5047520;28;20229;-79
2023/03/17 05:04:47;;;;;;;7.78;5.85;;;;;;;1.33;100.00;62134.81;5048512;28;20202;-79
2023/03/17 05:07:14;;;;;;;9.02;5.75;;;;;;;1.43;100.00;62149.59;5039053;28;20226;-78
2023/03/17 05:09:42;;;;;;;7.53;5.28;;;;;;;1.42;100.00;62149.09;5049478;28;20233;-79
2023/03/17 05:12:11;;;;;;;8.20;6.22;;;;;;;1.42;100.00;62143.56;5042103;28;20218;-79
2023/03/17 05:14:40;;;;;;;6.22;5.50;;;;;;;1.52;100.00;62154.31;5043991;28;20210;-80
2023/03/17 05:17:07;;;;;;;7.13;5.63;;;;;;;1.55;100.00;62159.94;5038054;28;20222;-80
2023/03/17 05:19:34;;;;;;;5.65;5.15;;;;;;;1.62;100.00;62166.59;5052070;28;20257;-79
2023/03/17 05:22:01;;;;;;;5.80;5.30;;;;;;;1.75;100.00;62174.91;5048322;28;20218;-79
2023/03/17 05:24:28;;;;;;;8.30;6.68;;;;;;;1.47;100.00;62151.22;5047103;28;20498;-79
2023/03/17 05:26:56;;;;;;;8.68;6.40;;;;;;;1.54;100.00;62153.34;5032052;28;20226;-80
2023/03/17 05:29:25;;;;;;;5.93;5.32;;;;;;;1.60;100.00;62160.03;5028533;28;20628;-80
2023/03/17 05:31:52;;;;;;;7.45;5.68;;;;;;;1.71;100.00;62171.31;5027020;28;20249;-79
2023/03/17 05:34:19;;;;;;;7.65;5.68;;;;;;;1.57;100.00;62161.97;5015396;28;20534;-79
2023/03/17 05:36:47;;;;;;;6.65;5.78;;;;;;;1.58;100.00;62163.00;5022836;28;20235;-80
2023/03/17 05:39:14;;;;;;;5.88;5.30;;;;;;;1.46;100.00;62150.16;5019709;28;20554;-78
2023/03/17 05:41:41;;;;;;;5.50;5.00;;;;;;;1.56;100.00;62157.91;5026643;28;20218;-80
2023/03/17 05:44:09;;;;;;;5.82;5.22;;;;;;;1.65;100.00;62169.66;5024361;28;20203;-79
2023/03/17 05:46:37;;;;;;;6.13;5.40;;;;;;;1.76;100.00;62175.94;5026339;28;20214;-78
2023/03/17 05:49:04;;;;;;;6.07;5.00;;;;;;;1.88;100.00;62195.78;5029419;28;20492;-79
2023/03/17 05:51:31;;;;;;;5.65;5.15;;;;;;;1.85;100.00;62187.69;5050009;28;20224;-78
2023/03/17 05:53:58;;;;;;;6.00;5.40;;;;;;;1.93;100.00;62196.41;5031902;28;20201;-78
2023/03/17 05:56:32;;;;;;;5.03;4.60;;;;;;;1.92;100.00;62192.88;5038383;28;20233;-77
2023/03/17 05:58:59;;;;;;;5.13;4.65;;;;;;;1.97;100.00;62203.03;5048783;28;20257;-76
2023/03/17 06:01:27;;;;;;;5.50;4.95;;;;;;;2.00;100.00;62203.09;5041149;28;20309;-78
2023/03/17 06:03:56;;;;;;;5.80;4.88;;;;;;;2.03;100.00;62208.69;5046696;28;20262;-77
2023/03/17 06:06:23;;;;;;;5.70;5.07;;;;;;;2.09;100.00;62214.84;5040047;28;20226;-78
2023/03/17 06:08:50;;;;;;;5.35;4.95;;;;;;;2.22;100.00;62228.72;5029511;28;20195;-77
2023/03/17 06:11:18;;;;;;;7.43;5.78;;;;;;;2.09;100.00;62212.31;5029703;28;20247;-79
2023/03/17 06:13:46;;;;;;;6.20;5.70;;;;;;;2.26;100.00;62229.78;5048703;28;20426;-78
2023/03/17 06:16:13;;;;;;;6.32;5.70;;;;;;;2.36;100.00;62242.56;5049035;28;20194;-77
2023/03/17 06:18:40;;;;;;;7.65;5.13;;;;;;;2.43;100.00;62246.72;5044983;28;20209;-77
2023/03/17 06:21:08;;;;;;;5.68;5.10;;;;;;;2.43;100.00;62246.72;5033886;28;20202;-76
2023/03/17 06:23:35;;;;;;;7.60;4.88;;;;;;;2.57;100.00;62264.16;5038187;28;20206;-77
2023/03/17 06:26:02;;;;;;;5.50;4.97;;;;;;;2.64;100.00;62263.28;5034440;28;20274;-77
2023/03/17 06:28:29;;;;;;;7.88;4.65;;;;;;;2.63;100.00;62267.78;5026141;28;20257;-77
2023/03/17 06:30:56;;;;;;;4.95;4.47;;;;;;;2.71;100.00;62276.00;5027183;28;20531;-78
2023/03/17 06:33:25;;;;;;;6.63;4.60;;;;;;;2.76;100.00;62280.63;5028286;28;20649;-78
2023/03/17 06:35:52;;;;;;;4.80;4.32;;;;;;;2.74;100.00;62283.59;5029410;28;20510;-77
2023/03/17 06:38:20;;;;;;;4.25;3.90;;;;;;;2.54;100.00;62261.06;5027032;28;20246;-77
2023/03/17 06:40:47;;;;;;;4.72;4.25;;;;;;;2.52;100.00;62258.50;5027150;28;20203;-77
2023/03/17 06:43:16;;;;;;;6.18;5.20;;;;;;;2.65;100.00;62266.81;5031341;28;20452;-78
2023/03/17 06:45:43;;;;;;;5.40;4.95;;;;;;;2.99;100.00;62306.78;5029110;28;20215;-76
2023/03/17 06:48:10;;;;;;;8.20;5.75;;;;;;;3.13;100.00;62318.66;5023807;28;20235;-76
2023/03/17 06:50:37;;;;;;;5.57;4.47;;;;;;;3.30;100.00;62341.16;5026116;28;20230;-76
2023/03/17 06:53:04;;;;;;;6.90;6.15;;;;;;;3.37;100.00;62348.88;5030753;28;20248;-77
2023/03/17 06:55:33;;;;;;;7.13;4.97;;;;;;;3.16;100.00;62319.22;5026721;28;20283;-76
2023/03/17 06:58:01;;;;;;;5.20;4.70;;;;;;;2.86;100.00;62293.94;5024518;28;20227;-75
2023/03/17 07:00:29;;;;;;;5.03;4.63;;;;;;;2.56;100.00;62257.56;5020286;28;20223;-77
2023/03/17 07:02:56;;;;;;;4.38;3.97;;;;;;;2.60;100.00;62267.22;5026421;28;20214;-76
2023/03/17 07:05:23;;;;;;;4.10;3.70;;;;;;;2.31;100.00;62235.44;5026403;28;20266;-76
2023/03/17 07:07:50;;;;;;;4.10;3.70;;;;;;;2.76;100.00;62283.16;5025406;28;20276;-77
2023/03/17 07:10:18;;;;;;;5.00;3.92;;;;;;;3.06;100.00;62311.97;5019057;28;20234;-76
2023/03/17 07:12:46;;;;;;;4.30;3.10;;;;;;;3.01;100.00;62308.84;5026307;28;20585;-76
2023/03/17 07:15:13;;;;;;;2.63;2.42;;;;;;;3.42;100.00;62348.47;5028392;28;20229;-74
2023/03/17 07:17:40;;;;;;;3.67;3.03;;;;;;;3.47;100.00;62356.63;5025581;28;20214;-77
2023/03/17 07:20:08;;;;;;;3.00;2.80;;;;;;;3.55;100.00;62362.34;5025316;28;20210;-77
2023/03/17 07:22:35;;;;;;;2.85;2.65;;;;;;;3.40;100.00;62351.44;5025978;28;20225;-75
2023/03/17 07:25:02;;;;;;;3.47;3.22;;;;;;;3.28;100.00;62337.09;5024397;28;20207;-75
2023/03/17 07:27:30;;;;;;;2.60;2.40;;;;;;;3.28;100.00;62339.09;5025818;28;20277;-75
2023/03/17 07:30:01;;;;;;;3.05;2.80;;;;;;;3.44;100.00;62353.56;5025980;28;20222;-77
2023/03/17 07:32:28;;;;;;;4.97;3.50;;;;;;;3.49;100.00;62355.66;5026691;28;20589;-77
2023/03/17 07:34:55;;;;;;;3.63;3.13;;;;;;;3.58;100.00;62362.41;5026753;28;20206;-77
2023/03/17 07:37:23;;;;;;;2.72;2.53;;;;;;;3.82;100.00;62391.59;5028230;28;20214;-76
2023/03/17 07:39:50;;;;;;;2.90;2.70;;;;;;;3.90;100.00;62399.84;5026571;28;20195;-77
2023/03/17 07:42:17;;;;;;;3.47;3.17;;;;;;;3.76;100.00;62387.97;5025292;28;20222;-75
2023/03/17 07:44:44;;;;;;;4.68;2.85;;;;;;;3.38;100.00;62349.41;5025741;28;20202;-77
2023/03/17 07:47:13;;;;;;;4.00;2.83;;;;;;;3.67;100.00;62374.19;5029504;28;20222;-76
2023/03/17 07:49:40;;;;;;;3.25;2.95;;;;;;;3.85;100.00;62397.22;5028135;28;20574;-77
2023/03/17 07:52:08;;;;;;;3.75;3.22;;;;;;;3.42;100.00;62346.47;5027640;28;20333;-75
2023/03/17 07:54:35;;;;;;;3.40;3.03;;;;;;;3.08;100.00;62314.03;5035676;28;20197;-76
2023/03/17 07:57:02;;;;;;;2.95;2.40;;;;;;;3.37;100.00;62348.34;5026520;28;20257;-77
2023/03/17 07:59:30;;;;;;;2.80;2.70;;;;;;;3.64;100.00;62373.09;5023889;28;20210;-76
2023/03/17 08:01:58;;;;;;;3.33;3.03;;;;;;;3.90;100.00;62399.84;5026073;28;20226;-77
2023/03/17 08:04:27;;;;;;;3.67;3.38;;;;;;;4.18;100.00;62429.16;5024398;28;20273;-75
2023/03/17 08:06:54;;;;;;;3.67;3.38;;;;;;;4.12;100.00;62420.47;5027141;28;20227;-76
2023/03/17 08:09:22;;;;;;;4.05;3.75;;;;;;;3.85;100.00;62397.72;5026759;28;20202;-76
2023/03/17 08:11:49;;;;;;;4.55;4.13;;;;;;;3.24;100.00;62327.44;5031264;28;20589;-75
2023/03/17 08:14:16;;;;;;;4.70;4.30;;;;;;;3.00;100.00;62305.31;5028384;28;20199;-78
2023/03/17 08:16:43;;;;;;;4.75;4.35;;;;;;;3.43;100.00;62352.53;5027079;28;20225;-78
2023/03/17 08:19:10;;;;;;;6.28;4.55;;;;;;;3.24;100.00;62335.53;5025863;28;20203;-77
2023/03/17 08:21:39;;;;;;;5.88;5.18;;;;;;;3.20;100.00;62330.88;5036188;28;20234;-75
2023/03/17 08:24:06;;;;;;;5.47;4.97;;;;;;;3.07;100.00;62312.50;5030164;28;20271;-76
2023/03/17 08:26:35;;;;;;;8.32;5.90;;;;;;;3.32;100.00;62343.75;5021740;28;20234;-78
2023/03/17 08:29:03;;;;;;;6.43;5.78;;;;;;;3.24;100.00;62333.00;5023300;28;20199;-76
2023/03/17 08:31:32;;;;;;;8.05;6.45;;;;;;;3.00;100.00;62307.81;5022592;28;20426;-76
2023/03/17 08:33:59;;;;;;;8.15;6.13;;;;;;;2.93;100.00;62296.13;5024539;28;20203;-77
2023/03/17 08:36:26;;;;;;;6.30;5.55;;;;;;;3.44;100.00;62355.56;5028418;28;20229;-78
2023/03/17 08:38:55;;;;;;;9.63;7.28;;;;;;;3.93;100.00;62403.44;5045777;28;20221;-77
2023/03/17 08:41:25;;;;;;;7.10;5.80;;;;;;;4.34;100.00;62442.59;5029252;28;20282;-77
2023/03/17 08:43:53;;;;;;;8.85;6.50;;;;;;;4.73;100.00;62485.75;5007400;28;20192;-77
2023/03/17 08:46:22;;;;;;;6.90;6.20;;;;;;;5.07;100.00;62520.25;5016712;28;20238;-77
2023/03/17 08:48:51;;;;;;;8.77;6.05;;;;;;;5.44;100.00;62558.34;5039183;28;20237;-77
2023/03/17 08:51:18;;;;;;;12.20;7.25;;;;;;;5.28;100.00;62538.84;5022032;28;20535;-77
2023/03/17 08:53:46;;;;;;;6.65;5.97;;;;;;;5.00;100.00;62507.47;5020504;28;20203;-74
2023/03/17 08:56:15;;;;;;;8.32;6.20;;;;;;;4.43;100.00;62456.88;5028809;28;20269;-75
2023/03/17 08:58:43;;;;;;;10.10;5.85;;;;;;;4.41;100.00;62449.78;5047789;28;20198;-76
2023/03/17 09:01:10;;;;;;;12.20;6.55;;;;;;;4.41;100.00;62455.34;5027410;28;20432;-76
2023/03/17 09:03:39;;;;;;;7.68;6.45;;;;;;;4.73;100.00;62485.75;5026992;28;20211;-76
2023/03/17 09:06:08;;;;;;;7.65;6.80;;;;;;;5.22;100.00;62540.22;5029922;28;20206;-77
2023/03/17 09:08:38;;;;;;;10.10;6.32;;;;;;;5.50;100.00;62564.03;5027672;28;20197;-78
2023/03/17 09:11:05;;;;;;;10.20;6.57;;;;;;;5.53;100.00;62565.09;5022662;28;20223;-75
2023/03/17 09:13:36;;;;;;;9.55;6.07;;;;;;;5.43;100.00;62559.88;5023049;28;20577;-77
2023/03/17 09:16:03;;;;;;;6.68;5.57;;;;;;;5.65;98.84;62579.47;5024608;28;20253;-78
2023/03/17 09:18:31;;;;;;;7.00;4.95;;;;;;;5.66;97.35;62581.03;5023451;28;20202;-78
2023/03/17 09:20:58;;;;;;;5.43;3.67;;;;;;;5.51;91.08;62565.56;5024793;28;20199;-78
2023/03/17 09:23:25;;;;;;;4.47;4.07;;;;;;;5.59;96.21;62571.28;5029321;28;20210;-78
2023/03/17 09:25:52;;;;;;;3.88;3.50;;;;;;;5.88;91.89;62603.72;5024192;28;20220;-77
2023/03/17 09:28:20;;;;;;;1.92;1.83;;;;;;;5.89;78.93;62606.75;5027823;28;20261;-77
2023/03/17 09:30:48;;;;;;;2.70;2.50;;;;;;;5.98;82.98;62610.47;5018308;28;20234;-76
2023/03/17 09:33:16;;;;;;;2.72;2.53;;;;;;;5.93;83.67;62610.38;5019955;28;20230;-76
2023/03/17 09:35:43;;;;;;;3.83;2.65;;;;;;;6.30;80.54;62645.97;5023500;28;20203;-76
2023/03/17 09:38:11;;;;;;;7.30;2.42;;;;;;;6.49;79.13;62668.09;5020474;28;20277;-76
2023/03/17 09:40:47;;;;;;;3.33;2.08;;;;;;;6.22;79.10;62638.25;5017308;28;20207;-77
2023/03/17 09:43:26;;;;;;;3.13;2.92;;;;;;;5.97;81.62;62609.94;5027682;28;20218;-77
2023/03/17 09:45:56;;;;;;;3.53;2.83;;;;;;;6.09;80.90;62627.34;5026110;28;20198;-77
2023/03/17 09:48:45;;;;;;;4.20;3.13;;;;;;;5.95;77.91;62604.84;5039257;28;20495;-76
2023/03/17 09:51:14;;;;;;;2.83;2.50;;;;;;;6.43;79.60;62659.91;5033968;28;20257;-79
2023/03/17 09:53:49;;;;;;;4.50;3.92;;;;;;;6.97;75.81;62712.53;5045110;28;20208;-79
2023/03/17 09:56:21;;;;;;;3.00;2.80;;;;;;;7.29;70.69;62748.09;5046775;28;20218;-77
2023/03/17 09:58:52;;;;;;;3.97;2.85;;;;;;;7.56;71.00;62773.41;5047321;28;20189;-77
2023/03/17 10:01:22;;;;;;;3.53;3.22;;;;;;;7.60;70.76;62782.09;5025490;28;20224;-76
2023/03/17 10:03:50;;;;;;;4.15;3.72;;;;;;;7.52;74.59;62774.38;5025204;28;20195;-77
2023/03/17 10:06:28;;;;;;;4.00;3.65;;;;;;;6.94;76.16;62711.97;5026860;28;20253;-76
2023/03/17 10:09:01;;;;;;;4.30;3.90;;;;;;;6.61;75.99;62675.91;5028394;28;20436;-78
2023/03/17 10:11:39;;;;;;;3.47;3.10;;;;;;;6.94;73.69;62707.44;5045256;28;20231;-79
2023/03/17 10:14:18;;;;;;;3.30;3.00;;;;;;;6.93;70.65;62716.00;5029038;28;20199;-77
2023/03/17 10:16:53;;;;;;;3.88;3.25;;;;;;;6.95;72.42;62715.53;5026807;28;20229;-79
2023/03/17 10:19:27;;;;;;;3.55;2.92;;;;;;;6.83;72.44;62700.63;5022592;28;20203;-79
2023/03/17 10:21:59;;;;;;;3.95;3.00;;;;;;;6.50;74.44;62664.06;5020776;28;20238;-80
2023/03/17 10:24:29;;;;;;;3.03;2.83;;;;;;;5.89;73.11;62601.69;5027294;28;20504;-77
2023/03/17 10:27:01;;;;;;;3.17;2.97;;;;;;;6.10;76.59;62622.81;5024722;28;20230;-79
2023/03/17 10:29:30;;;;;;;7.00;3.30;;;;;;;5.78;79.24;62595.91;5028041;28;20215;-78
2023/03/17 10:31:59;;;;;;;8.30;4.43;;;;;;;5.72;82.01;62587.22;5024907;28;20290;-76
2023/03/17 10:34:28;;;;;;;3.65;3.35;;;;;;;5.87;80.06;62602.16;5026339;28;20206;-78
2023/03/17 10:37:01;;;;;;;5.03;3.53;;;;;;;6.25;80.69;62638.81;5027069;28;20631;-79
2023/03/17 10:39:28;;;;;;;3.85;3.55;;;;;;;6.75;78.69;62692.88;5025175;28;20206;-78
2023/03/17 10:41:57;;;;;;;3.30;3.10;;;;;;;6.76;75.64;62695.94;5029205;28;20216;-76
2023/03/17 10:44:44;;;;;;;3.90;3.60;;;;;;;6.76;73.65;62688.34;5029778;28;20207;-76
2023/03/17 10:47:31;;;;;;;4.30;3.53;;;;;;;6.91;71.87;62708.88;5029285;28;20222;-77
2023/03/17 10:50:02;;;;;;;3.53;3.22;;;;;;;6.85;69.05;62705.72;5026796;28;20197;-78
2023/03/17 10:52:32;;;;;;;3.63;3.33;;;;;;;7.19;71.23;62729.66;5030491;28;20226;-78
2023/03/17 10:55:04;;;;;;;3.20;3.00;;;;;;;7.65;67.05;62780.19;5031247;28;20199;-78
2023/03/17 10:57:31;;;;;;;3.28;3.08;;;;;;;8.05;64.08;62824.00;5030767;28;20233;-77
2023/03/17 11:00:03;;;;;;;3.30;3.08;;;;;;;8.44;60.46;62865.81;5034599;28;20206;-78
2023/03/17 11:02:36;;;;;;;3.38;3.17;;;;;;;8.50;59.74;62874.53;5028585;28;20583;-79
2023/03/17 11:05:06;;;;;;;3.50;3.20;;;;;;;8.48;60.97;62869.94;5026034;28;20205;-77
2023/03/17 11:07:37;;;;;;;3.10;2.90;;;;;;;8.56;56.85;62875.66;5028242;28;20234;-77
2023/03/17 11:10:14;;;;;;;3.15;2.95;;;;;;;8.19;55.44;62838.47;5028392;28;20199;-76
2023/03/17 11:12:42;;;;;;;3.60;3.30;;;;;;;7.90;57.62;62813.56;5013092;28;20234;-77
2023/03/17 11:15:15;;;;;;;3.33;2.95;;;;;;;7.30;60.75;62746.59;5028796;28;20355;-76
2023/03/17 11:17:51;;;;;;;3.28;2.97;;;;;;;6.92;63.11;62710.44;5010878;28;20226;-78
2023/03/17 11:20:45;;;;;;;4.95;3.00;;;;;;;7.29;67.72;62750.63;5008893;28;20349;-76
2023/03/17 11:23:22;;;;;;;2.92;2.50;;;;;;;7.94;60.07;62812.13;5025054;28;20574;-78
2023/03/17 11:25:57;;;;;;;2.60;2.50;;;;;;;7.99;62.80;62822.34;5022470;28;20227;-77
2023/03/17 11:28:31;;;;;;;3.13;2.83;;;;;;;7.81;65.81;62806.84;5029051;28;20186;-77
2023/03/17 11:31:06;;;;;;;3.30;3.05;;;;;;;7.63;66.12;62785.72;5027301;28;20229;-78
2023/03/17 11:33:41;;;;;;;3.03;2.70;;;;;;;7.75;64.41;62798.09;5028692;28;20191;-78
2023/03/17 11:36:19;;;;;;;2.85;2.65;;;;;;;7.55;61.24;62774.91;5029695;28;20237;-77
2023/03/17 11:38:57;;;;;;;3.05;2.50;;;;;;;7.66;58.63;62785.75;5032497;28;20187;-77
2023/03/17 11:41:40;;;;;;;2.90;2.63;;;;;;;7.93;56.90;62811.63;5026053;28;20222;-77